createdAt,value
2023-03-31T00:01:44.326Z,13.87
2023-03-31T00:04:13.354Z,24.87
2023-03-31T00:06:44.228Z,16.23
2023-03-31T00:09:15.972Z,22.67
2023-03-31T00:11:43.778Z,12.60
2023-03-31T00:14:10.445Z,18.43
2023-03-31T00:16:37.599Z,11.77
2023-03-31T00:19:04.840Z,11.47
2023-03-31T00:21:34.152Z,16.27
2023-03-31T00:24:02.239Z,19.03
2023-03-31T00:26:29.365Z,14.93
2023-03-31T00:28:56.537Z,19.97
2023-03-31T00:31:23.165Z,18.57
2023-03-31T00:33:49.824Z,21.70
2023-03-31T00:36:27.330Z,11.03
2023-03-31T00:39:00.840Z,11.50
2023-03-31T00:41:28.586Z,12.13
2023-03-31T00:44:13.697Z,8.70
2023-03-31T00:46:57.133Z,11.80
2023-03-31T00:49:28.385Z,10.37
2023-03-31T00:51:56.996Z,9.33
2023-03-31T00:54:25.980Z,7.57
2023-03-31T00:56:55.591Z,11.90
2023-03-31T00:59:24.149Z,10.03
2023-03-31T01:01:52.827Z,12.50
2023-03-31T01:04:23.971Z,14.30
2023-03-31T01:07:03.587Z,9.23
2023-03-31T01:09:34.951Z,15.43
2023-03-31T01:12:07.265Z,6.67
2023-03-31T01:14:34.167Z,11.13
2023-03-31T01:17:00.708Z,6.43
2023-03-31T01:19:34.797Z,6.57
2023-03-31T01:22:14.488Z,10.07
2023-03-31T01:24:47.549Z,10.10
2023-03-31T01:27:23.196Z,10.77
2023-03-31T01:30:08.515Z,9.23
2023-03-31T01:32:52.796Z,14.43
2023-03-31T01:35:38.441Z,6.60
2023-03-31T01:38:20.035Z,18.80
2023-03-31T01:41:05.904Z,11.57
2023-03-31T01:43:32.346Z,5.50
2023-03-31T01:46:01.877Z,8.30
2023-03-31T01:48:30.200Z,10.87
2023-03-31T01:50:58.068Z,8.53
2023-03-31T01:53:36.070Z,8.27
2023-03-31T01:56:06.068Z,18.17
2023-03-31T01:58:36.245Z,8.77
2023-03-31T02:01:05.893Z,10.17
2023-03-31T02:03:38.759Z,9.43
2023-03-31T02:06:09.089Z,12.20
2023-03-31T02:08:41.754Z,6.97
2023-03-31T02:11:08.289Z,2.87
2023-03-31T02:13:37.243Z,9.93
2023-03-31T02:16:06.941Z,6.57
2023-03-31T02:18:38.326Z,9.03
2023-03-31T02:21:09.871Z,9.07
2023-03-31T02:23:37.775Z,7.23
2023-03-31T02:26:04.299Z,7.77
2023-03-31T02:28:31.101Z,8.53
2023-03-31T02:31:03.731Z,6.47
2023-03-31T02:33:30.213Z,7.00
2023-03-31T02:35:59.278Z,8.00
2023-03-31T02:38:25.907Z,10.60
2023-03-31T02:40:52.299Z,5.97
2023-03-31T02:43:18.893Z,8.53
2023-03-31T02:45:47.223Z,8.80
2023-03-31T02:48:19.721Z,11.20
2023-03-31T02:51:01.864Z,9.90
2023-03-31T02:53:28.281Z,12.93
2023-03-31T02:55:54.648Z,7.37
2023-03-31T02:58:21.083Z,9.93
2023-03-31T03:01:06.043Z,6.90
2023-03-31T03:03:44.778Z,13.10
2023-03-31T03:06:13.705Z,6.87
2023-03-31T03:08:42.994Z,6.40
2023-03-31T03:11:12.692Z,7.33
2023-03-31T03:13:47.298Z,7.83
2023-03-31T03:16:14.052Z,8.57
2023-03-31T03:18:40.563Z,8.13
2023-03-31T03:21:07.398Z,8.13
2023-03-31T03:23:34.146Z,9.67
2023-03-31T03:26:00.662Z,11.83
2023-03-31T03:28:27.105Z,6.87
2023-03-31T03:30:54.612Z,3.87
2023-03-31T03:33:25.076Z,7.30
2023-03-31T03:35:51.827Z,6.80
2023-03-31T03:38:18.257Z,9.00
2023-03-31T03:40:44.689Z,5.93
2023-03-31T03:43:11.094Z,6.97
2023-03-31T03:45:37.556Z,6.10
2023-03-31T03:48:06.228Z,9.87
2023-03-31T03:50:35.497Z,6.17
2023-03-31T03:53:01.861Z,3.53
2023-03-31T03:55:29.028Z,7.00
2023-03-31T03:57:55.499Z,3.77
2023-03-31T04:00:21.951Z,1.47
2023-03-31T04:02:48.481Z,2.60
2023-03-31T04:05:14.916Z,2.40
2023-03-31T04:07:41.418Z,3.30
2023-03-31T04:10:08.284Z,3.00
2023-03-31T04:12:35.445Z,6.07
2023-03-31T04:15:01.929Z,4.13
2023-03-31T04:17:34.921Z,5.70
2023-03-31T04:20:05.253Z,6.20
2023-03-31T04:22:35.325Z,2.73
2023-03-31T04:25:05.129Z,6.27
2023-03-31T04:27:33.839Z,6.20
2023-03-31T04:30:00.193Z,6.67
2023-03-31T04:32:26.615Z,5.60
2023-03-31T04:35:02.608Z,4.23
2023-03-31T04:37:34.649Z,7.07
2023-03-31T04:40:08.157Z,9.53
2023-03-31T04:42:34.690Z,10.10
2023-03-31T04:45:01.152Z,7.90
2023-03-31T04:47:27.609Z,6.80
2023-03-31T04:49:54.093Z,13.43
2023-03-31T04:52:20.522Z,8.50
2023-03-31T04:54:46.903Z,12.20
2023-03-31T04:57:13.329Z,9.40
2023-03-31T04:59:39.721Z,6.67
2023-03-31T05:02:06.855Z,12.70
2023-03-31T05:04:33.310Z,5.13
2023-03-31T05:06:59.751Z,12.03
2023-03-31T05:09:26.168Z,9.43
2023-03-31T05:11:53.619Z,11.33
2023-03-31T05:14:20.930Z,8.07
2023-03-31T05:16:47.434Z,16.53
2023-03-31T05:19:13.977Z,6.00
2023-03-31T05:21:40.465Z,8.37
2023-03-31T05:24:07.091Z,8.67
2023-03-31T05:26:33.558Z,5.47
2023-03-31T05:28:59.950Z,10.97
2023-03-31T05:31:27.295Z,4.83
2023-03-31T05:33:53.764Z,6.07
2023-03-31T05:36:20.327Z,7.77
2023-03-31T05:38:47.772Z,10.00
2023-03-31T05:41:14.317Z,3.53
2023-03-31T05:43:40.767Z,4.77
2023-03-31T05:46:07.585Z,3.40
2023-03-31T05:48:34.603Z,6.00
2023-03-31T05:51:01.789Z,8.13
2023-03-31T05:53:28.238Z,3.00
2023-03-31T05:56:02.135Z,5.43
2023-03-31T05:58:28.992Z,6.70
2023-03-31T06:01:06.385Z,3.20
2023-03-31T06:03:33.851Z,3.87
2023-03-31T06:06:01.963Z,4.73
2023-03-31T06:08:28.979Z,2.53
2023-03-31T06:10:55.469Z,2.57
2023-03-31T06:13:21.911Z,5.87
2023-03-31T06:15:58.565Z,7.07
2023-03-31T06:18:26.651Z,3.53
2023-03-31T06:20:53.060Z,5.83
2023-03-31T06:23:19.562Z,2.97
2023-03-31T06:25:51.394Z,4.77
2023-03-31T06:28:18.488Z,2.60
2023-03-31T06:30:44.920Z,2.73
2023-03-31T06:33:11.717Z,3.37
2023-03-31T06:35:39.167Z,3.33
2023-03-31T06:38:06.547Z,3.80
2023-03-31T06:40:33.186Z,2.20
2023-03-31T06:42:59.930Z,2.63
2023-03-31T06:45:26.386Z,4.93
2023-03-31T06:47:53.083Z,5.33
2023-03-31T06:50:20.611Z,6.73
2023-03-31T06:52:48.459Z,5.27
2023-03-31T06:55:16.115Z,4.10
2023-03-31T06:57:42.579Z,4.87
2023-03-31T07:00:09.461Z,3.07
2023-03-31T07:02:37.251Z,3.30
2023-03-31T07:05:04.196Z,5.97
2023-03-31T07:07:33.988Z,3.30
2023-03-31T07:10:00.586Z,3.93
2023-03-31T07:12:27.075Z,3.63
2023-03-31T07:14:53.431Z,5.87
2023-03-31T07:17:21.174Z,2.80
2023-03-31T07:19:48.273Z,5.10
2023-03-31T07:22:15.699Z,4.97
2023-03-31T07:24:42.318Z,4.13
2023-03-31T07:27:08.738Z,6.07
2023-03-31T07:29:35.690Z,3.37
2023-03-31T07:32:02.190Z,5.37
2023-03-31T07:34:28.731Z,5.10
2023-03-31T07:36:56.475Z,5.40
2023-03-31T07:39:22.935Z,5.40
2023-03-31T07:41:49.372Z,3.87
2023-03-31T07:44:17.555Z,4.93
2023-03-31T07:46:44.005Z,8.97
2023-03-31T07:49:10.614Z,2.87
2023-03-31T07:51:36.985Z,3.67
2023-03-31T07:54:03.449Z,8.10
2023-03-31T07:56:29.941Z,12.00
2023-03-31T07:58:57.871Z,5.50
2023-03-31T08:01:26.314Z,9.30
2023-03-31T08:03:55.401Z,9.97
2023-03-31T08:06:24.166Z,5.37
2023-03-31T08:08:50.713Z,4.83
2023-03-31T08:11:19.157Z,8.50
2023-03-31T08:13:45.501Z,7.60
2023-03-31T08:16:12.066Z,13.07
2023-03-31T08:18:38.473Z,7.67
2023-03-31T08:21:05.235Z,7.83
2023-03-31T08:23:31.866Z,7.67
2023-03-31T08:26:13.190Z,10.00
2023-03-31T08:28:41.010Z,4.73
2023-03-31T08:31:08.412Z,8.47
2023-03-31T08:33:34.979Z,7.93
2023-03-31T08:36:02.769Z,8.10
2023-03-31T08:38:29.440Z,11.70
2023-03-31T08:41:02.278Z,11.00
2023-03-31T08:43:38.520Z,10.23
2023-03-31T08:46:05.103Z,12.87
2023-03-31T08:48:45.439Z,9.70
2023-03-31T08:51:16.588Z,6.80
2023-03-31T08:53:45.341Z,9.40
2023-03-31T08:56:16.996Z,10.53
2023-03-31T08:58:44.376Z,13.80
2023-03-31T09:01:54.735Z,7.90
2023-03-31T09:04:41.267Z,11.57
2023-03-31T09:07:12.493Z,11.63
2023-03-31T09:09:43.161Z,11.60
2023-03-31T09:12:26.343Z,8.43
2023-03-31T09:14:54.946Z,8.83
2023-03-31T09:17:25.435Z,12.80
2023-03-31T09:19:58.969Z,14.00
2023-03-31T09:22:27.774Z,10.63
2023-03-31T09:25:10.840Z,9.73
2023-03-31T09:27:41.384Z,11.87
2023-03-31T09:30:16.329Z,13.40
2023-03-31T09:32:42.993Z,15.43
2023-03-31T09:35:25.102Z,5.20
2023-03-31T09:37:52.301Z,8.50
2023-03-31T09:40:20.385Z,8.37
2023-03-31T09:42:48.223Z,13.63
2023-03-31T09:45:16.554Z,3.70
2023-03-31T09:47:44.898Z,11.87
2023-03-31T09:50:11.810Z,11.03
2023-03-31T09:52:40.359Z,10.60
2023-03-31T09:55:39.128Z,10.83
2023-03-31T09:58:07.633Z,11.37
2023-03-31T10:00:34.226Z,15.83
2023-03-31T10:03:07.752Z,16.73
2023-03-31T10:05:43.384Z,12.60
2023-03-31T10:08:09.844Z,11.67
2023-03-31T10:10:36.228Z,13.63
2023-03-31T10:13:07.397Z,8.87
2023-03-31T10:15:37.180Z,8.53
2023-03-31T10:18:03.996Z,8.97
2023-03-31T10:20:36.983Z,10.80
2023-03-31T10:23:14.654Z,11.17
2023-03-31T10:25:41.128Z,10.67
2023-03-31T10:28:11.526Z,5.80
2023-03-31T10:30:40.587Z,12.57
2023-03-31T10:33:21.850Z,8.57
2023-03-31T10:35:51.131Z,11.43
2023-03-31T10:38:22.769Z,7.37
2023-03-31T10:40:54.431Z,7.73
2023-03-31T10:43:21.959Z,10.47
2023-03-31T10:45:49.632Z,13.23
2023-03-31T10:48:19.132Z,4.63
2023-03-31T10:50:46.105Z,9.20
2023-03-31T10:53:14.031Z,9.27
2023-03-31T10:55:54.474Z,8.20
2023-03-31T10:58:34.209Z,5.90
2023-03-31T11:01:19.482Z,7.60
2023-03-31T11:03:55.260Z,14.33
2023-03-31T11:06:31.136Z,9.43
2023-03-31T11:09:07.864Z,9.37
2023-03-31T11:11:49.680Z,7.10
2023-03-31T11:14:25.228Z,4.80
2023-03-31T11:17:07.655Z,7.67
2023-03-31T11:19:51.928Z,6.63
2023-03-31T11:22:27.250Z,5.23
2023-03-31T11:25:16.909Z,8.43
2023-03-31T11:28:01.774Z,9.30
2023-03-31T11:30:51.629Z,13.73
2023-03-31T11:33:18.128Z,5.33
2023-03-31T11:36:04.517Z,9.50
2023-03-31T11:38:40.063Z,6.73
2023-03-31T11:41:19.161Z,5.30
2023-03-31T11:43:51.190Z,3.70
2023-03-31T11:46:20.556Z,6.13
2023-03-31T11:48:58.116Z,5.50
2023-03-31T11:51:31.105Z,2.97
2023-03-31T11:53:58.870Z,6.80
2023-03-31T11:56:28.335Z,3.40
2023-03-31T11:58:56.884Z,6.00
2023-03-31T12:01:42.318Z,10.73
2023-03-31T12:04:21.065Z,8.73
2023-03-31T12:06:49.368Z,10.20
2023-03-31T12:09:26.042Z,3.73
2023-03-31T12:12:03.708Z,6.53
2023-03-31T12:14:30.302Z,6.30
2023-03-31T12:17:11.073Z,6.27
2023-03-31T12:19:45.478Z,4.93
2023-03-31T12:22:16.787Z,5.50
2023-03-31T12:24:43.322Z,6.27
2023-03-31T12:27:27.830Z,3.30
2023-03-31T12:29:54.201Z,4.67
2023-03-31T12:32:26.104Z,3.13
2023-03-31T12:35:02.070Z,6.83
2023-03-31T12:37:45.660Z,3.73
2023-03-31T12:40:31.071Z,4.03
2023-03-31T12:43:00.608Z,5.83
2023-03-31T12:45:31.403Z,5.07
2023-03-31T12:48:16.920Z,6.47
2023-03-31T12:50:43.714Z,5.37
2023-03-31T12:53:16.475Z,8.43
2023-03-31T12:55:46.913Z,3.83
2023-03-31T12:58:22.508Z,4.43
2023-03-31T13:01:02.028Z,4.07
2023-03-31T13:03:34.619Z,6.57
2023-03-31T13:06:01.695Z,4.47
2023-03-31T13:08:46.872Z,5.47
2023-03-31T13:11:13.505Z,3.10
2023-03-31T13:14:00.335Z,2.77
2023-03-31T13:16:27.848Z,3.77
2023-03-31T13:18:55.216Z,2.33
2023-03-31T13:21:23.738Z,6.53
2023-03-31T13:23:50.463Z,3.03
2023-03-31T13:26:36.799Z,2.40
2023-03-31T13:29:10.017Z,5.57
2023-03-31T13:31:55.192Z,2.73
2023-03-31T13:34:21.964Z,6.40
2023-03-31T13:37:08.620Z,5.10
2023-03-31T13:39:42.975Z,5.77
2023-03-31T13:42:28.113Z,4.90
2023-03-31T13:44:55.552Z,3.10
2023-03-31T13:47:40.366Z,4.20
2023-03-31T13:50:36.687Z,3.33
2023-03-31T13:53:28.632Z,3.50
2023-03-31T13:56:04.437Z,4.70
2023-03-31T13:58:35.430Z,2.67
2023-03-31T14:01:25.630Z,2.70
2023-03-31T14:03:52.508Z,3.97
2023-03-31T14:06:37.899Z,2.40
2023-03-31T14:09:07.789Z,3.50
2023-03-31T14:11:34.307Z,3.97
2023-03-31T14:14:00.845Z,4.63
2023-03-31T14:16:28.782Z,7.70
2023-03-31T14:19:01.190Z,4.00
2023-03-31T14:21:27.701Z,4.50
2023-03-31T14:24:00.158Z,3.10
2023-03-31T14:26:32.802Z,3.83
2023-03-31T14:29:12.739Z,4.43
2023-03-31T14:31:50.230Z,3.67
2023-03-31T14:34:27.150Z,4.70
2023-03-31T14:37:00.994Z,4.17
2023-03-31T14:39:30.196Z,4.10
2023-03-31T14:41:59.613Z,5.97
2023-03-31T14:44:26.045Z,5.87
2023-03-31T14:46:52.497Z,5.63
2023-03-31T14:49:21.507Z,5.60
2023-03-31T14:51:48.724Z,5.03
2023-03-31T14:54:19.328Z,3.70
2023-03-31T14:56:49.629Z,4.70
2023-03-31T14:59:20.302Z,6.10
2023-03-31T15:01:47.294Z,6.43
2023-03-31T15:04:15.900Z,5.70
2023-03-31T15:06:44.957Z,4.80
2023-03-31T15:09:15.394Z,3.90
2023-03-31T15:11:41.829Z,6.10
2023-03-31T15:14:09.896Z,4.00
2023-03-31T15:16:42.341Z,7.07
2023-03-31T15:19:12.551Z,5.67
2023-03-31T15:21:39.291Z,6.07
2023-03-31T15:24:06.386Z,2.80
2023-03-31T15:26:41.293Z,3.30
2023-03-31T15:29:11.806Z,3.27
2023-03-31T15:31:41.078Z,6.07
2023-03-31T15:34:28.324Z,4.13
2023-03-31T15:36:55.819Z,2.63
2023-03-31T15:39:23.545Z,3.60
2023-03-31T15:41:50.286Z,5.87
2023-03-31T15:44:34.997Z,5.70
2023-03-31T15:47:16.852Z,3.40
2023-03-31T15:49:50.971Z,4.13
2023-03-31T15:52:30.594Z,6.17
2023-03-31T15:54:57.651Z,4.93
2023-03-31T15:57:31.615Z,4.77
2023-03-31T16:00:00.454Z,4.30
2023-03-31T16:02:37.969Z,3.87
2023-03-31T16:05:10.393Z,2.90
2023-03-31T16:07:37.470Z,6.27
2023-03-31T16:10:21.692Z,3.80
2023-03-31T16:12:54.278Z,3.63
2023-03-31T16:15:24.058Z,4.57
2023-03-31T16:17:54.253Z,2.90
2023-03-31T16:20:29.166Z,2.37
2023-03-31T16:22:58.794Z,2.30
2023-03-31T16:25:26.259Z,3.93
2023-03-31T16:28:02.070Z,1.90
2023-03-31T16:30:39.222Z,6.50
2023-03-31T16:33:07.953Z,7.60
2023-03-31T16:35:38.617Z,3.60
2023-03-31T16:38:06.141Z,3.80
2023-03-31T16:40:39.876Z,4.47
2023-03-31T16:43:09.110Z,2.13
2023-03-31T16:45:35.594Z,5.40
2023-03-31T16:48:12.745Z,3.80
2023-03-31T16:50:42.639Z,2.50
2023-03-31T16:53:09.235Z,3.60
2023-03-31T16:55:35.635Z,4.07
2023-03-31T16:58:03.689Z,3.03
2023-03-31T17:00:31.495Z,3.77
2023-03-31T17:02:58.270Z,4.27
2023-03-31T17:05:25.509Z,5.77
2023-03-31T17:07:52.291Z,4.63
2023-03-31T17:10:18.890Z,2.83
2023-03-31T17:12:45.419Z,2.93
2023-03-31T17:15:12.101Z,4.37
2023-03-31T17:17:38.785Z,5.40
2023-03-31T17:20:06.672Z,3.87
2023-03-31T17:22:33.299Z,3.50
2023-03-31T17:25:00.029Z,3.80
2023-03-31T17:27:27.386Z,2.90
2023-03-31T17:29:54.070Z,3.23
2023-03-31T17:32:20.960Z,3.50
2023-03-31T17:34:48.637Z,5.00
2023-03-31T17:37:16.826Z,2.60
2023-03-31T17:39:43.457Z,3.67
2023-03-31T17:42:10.255Z,4.33
2023-03-31T17:44:36.768Z,3.10
2023-03-31T17:47:03.191Z,12.23
2023-03-31T17:49:29.773Z,7.53
2023-03-31T17:51:56.204Z,8.73
2023-03-31T17:54:23.665Z,6.13
2023-03-31T17:56:50.334Z,9.57
2023-03-31T17:59:18.252Z,12.30
2023-03-31T18:01:45.114Z,9.60
2023-03-31T18:04:11.654Z,8.27
2023-03-31T18:06:38.773Z,14.27
2023-03-31T18:09:06.080Z,7.87
2023-03-31T18:11:32.773Z,5.63
2023-03-31T18:14:01.984Z,9.83
2023-03-31T18:16:29.600Z,7.17
2023-03-31T18:18:56.075Z,8.30
2023-03-31T18:21:23.961Z,10.67
2023-03-31T18:23:55.130Z,7.80
2023-03-31T18:26:26.013Z,14.53
2023-03-31T18:28:52.400Z,7.93
2023-03-31T18:31:18.956Z,12.60
2023-03-31T18:33:45.323Z,12.13
2023-03-31T18:36:21.577Z,15.77
2023-03-31T18:38:48.705Z,13.43
2023-03-31T18:41:15.703Z,10.63
2023-03-31T18:43:42.019Z,13.13
2023-03-31T18:46:08.708Z,12.87
2023-03-31T18:48:35.157Z,16.90
2023-03-31T18:51:01.905Z,10.47
2023-03-31T18:53:28.607Z,14.07
2023-03-31T18:55:56.859Z,12.57
2023-03-31T18:58:23.725Z,13.13
2023-03-31T19:00:50.600Z,7.43
2023-03-31T19:03:17.154Z,12.30
2023-03-31T19:05:43.855Z,17.80
2023-03-31T19:08:10.552Z,8.13
2023-03-31T19:10:36.946Z,13.73
2023-03-31T19:13:03.422Z,11.17
2023-03-31T19:15:29.968Z,12.77
2023-03-31T19:17:56.588Z,14.27
2023-03-31T19:20:23.321Z,20.33
2023-03-31T19:22:50.870Z,11.43
2023-03-31T19:25:18.669Z,13.70
2023-03-31T19:27:46.119Z,13.73
2023-03-31T19:30:21.220Z,13.90
2023-03-31T19:32:48.980Z,17.23
2023-03-31T19:35:16.081Z,12.00
2023-03-31T19:37:42.490Z,21.17
2023-03-31T19:40:09.384Z,16.60
2023-03-31T19:42:35.939Z,17.17
2023-03-31T19:45:02.347Z,20.57
2023-03-31T19:47:28.747Z,10.60
2023-03-31T19:49:55.283Z,14.60
2023-03-31T19:52:21.798Z,10.83
2023-03-31T19:54:49.543Z,19.90
2023-03-31T19:57:16.129Z,14.70
2023-03-31T19:59:42.569Z,11.47
2023-03-31T20:02:12.770Z,18.37
2023-03-31T20:04:39.573Z,17.83
2023-03-31T20:07:06.068Z,11.40
2023-03-31T20:09:32.785Z,14.77
2023-03-31T20:11:59.265Z,14.97
2023-03-31T20:14:25.749Z,11.10
2023-03-31T20:16:52.853Z,12.57
2023-03-31T20:19:19.308Z,17.90
2023-03-31T20:21:45.911Z,13.97
2023-03-31T20:24:17.016Z,19.47
2023-03-31T20:26:43.565Z,14.57
2023-03-31T20:29:10.534Z,16.17
2023-03-31T20:31:37.482Z,24.17
2023-03-31T20:34:05.915Z,17.80
2023-03-31T20:36:32.511Z,15.50
2023-03-31T20:38:59.847Z,19.03
2023-03-31T20:41:28.358Z,17.40
2023-03-31T20:43:55.095Z,27.83
2023-03-31T20:46:22.339Z,24.23
2023-03-31T20:48:51.285Z,30.53
2023-03-31T20:51:19.211Z,21.43
2023-03-31T20:53:47.626Z,19.50
2023-03-31T20:56:15.454Z,15.67
2023-03-31T20:58:44.263Z,20.20
2023-03-31T21:01:11.148Z,22.23
2023-03-31T21:03:37.834Z,16.27
2023-03-31T21:06:05.518Z,27.37
2023-03-31T21:08:32.334Z,13.43
2023-03-31T21:10:59.498Z,23.23
2023-03-31T21:13:26.835Z,13.17
2023-03-31T21:15:56.710Z,17.20
2023-03-31T21:18:23.319Z,24.17
2023-03-31T21:20:54.193Z,21.13
2023-03-31T21:23:20.980Z,13.93
2023-03-31T21:25:48.824Z,23.57
2023-03-31T21:28:20.468Z,21.10
2023-03-31T21:30:54.004Z,21.77
2023-03-31T21:33:20.987Z,14.87
2023-03-31T21:35:47.784Z,19.57
2023-03-31T21:38:14.739Z,21.10
2023-03-31T21:40:42.588Z,21.63
2023-03-31T21:43:09.210Z,27.90
2023-03-31T21:45:37.181Z,20.97
2023-03-31T21:48:04.212Z,23.87
2023-03-31T21:50:30.797Z,25.20
2023-03-31T21:52:57.375Z,23.70
2023-03-31T21:55:23.860Z,28.80
2023-03-31T21:57:50.237Z,32.73
2023-03-31T22:00:16.813Z,32.67
2023-03-31T22:02:43.626Z,26.33
2023-03-31T22:05:10.933Z,36.13
2023-03-31T22:07:37.905Z,27.10
2023-03-31T22:10:04.744Z,19.83
2023-03-31T22:12:31.552Z,28.33
2023-03-31T22:14:58.250Z,28.37
2023-03-31T22:17:25.160Z,37.90
2023-03-31T22:19:51.530Z,33.30
2023-03-31T22:22:18.283Z,25.77
2023-03-31T22:24:44.688Z,46.13
2023-03-31T22:27:11.357Z,44.70
2023-03-31T22:29:38.249Z,36.03
2023-03-31T22:32:04.761Z,30.60
2023-03-31T22:34:31.433Z,35.40
2023-03-31T22:36:58.176Z,42.80
2023-03-31T22:39:25.342Z,38.80
2023-03-31T22:41:51.960Z,51.80
2023-03-31T22:44:18.510Z,38.63
2023-03-31T22:46:49.862Z,57.87
2023-03-31T22:49:16.539Z,43.47
2023-03-31T22:51:45.057Z,37.07
2023-03-31T22:54:15.540Z,39.47
2023-03-31T22:56:43.042Z,46.43
2023-03-31T22:59:10.410Z,50.30
2023-03-31T23:01:36.922Z,40.83
2023-03-31T23:04:04.293Z,61.17
2023-03-31T23:06:31.702Z,42.50
2023-03-31T23:09:00.187Z,49.53
2023-03-31T23:11:27.357Z,46.23
2023-03-31T23:13:53.771Z,50.50
2023-03-31T23:16:21.796Z,40.30
2023-03-31T23:18:48.783Z,41.00
2023-03-31T23:21:16.271Z,41.30
2023-03-31T23:23:42.965Z,38.20
2023-03-31T23:26:09.643Z,47.60
2023-03-31T23:28:37.196Z,34.90
2023-03-31T23:31:03.651Z,34.07
2023-03-31T23:33:30.567Z,39.33
2023-03-31T23:36:01.036Z,28.50
2023-03-31T23:38:27.715Z,45.70
2023-03-31T23:40:54.137Z,30.40
2023-03-31T23:43:20.558Z,29.93
2023-03-31T23:45:47.089Z,38.47
2023-03-31T23:48:13.463Z,35.27
2023-03-31T23:50:39.863Z,23.17
2023-03-31T23:53:06.367Z,33.10
2023-03-31T23:55:33.121Z,28.53
2023-03-31T23:57:59.758Z,29.13
